createdAt,value
2023-11-24T00:01:31.522Z,1.60
2023-11-24T00:04:03.276Z,1.40
2023-11-24T00:06:34.970Z,1.20
2023-11-24T00:09:07.332Z,1.20
2023-11-24T00:11:39.173Z,1.30
2023-11-24T00:14:10.889Z,1.30
2023-11-24T00:16:42.518Z,1.10
2023-11-24T00:19:16.639Z,1.30
2023-11-24T00:21:49.033Z,1.30
2023-11-24T00:24:20.424Z,1.30
2023-11-24T00:26:53.955Z,1.20
2023-11-24T00:29:24.953Z,1.40
2023-11-24T00:31:56.098Z,1.40
2023-11-24T00:34:27.382Z,1.30
2023-11-24T00:36:59.706Z,1.40
2023-11-24T00:39:30.912Z,1.40
2023-11-24T00:42:02.263Z,1.60
2023-11-24T00:44:33.302Z,1.60
2023-11-24T00:47:06.499Z,2.50
2023-11-24T00:49:37.702Z,2.70
2023-11-24T00:52:09.632Z,1.70
2023-11-24T00:54:40.925Z,1.50
2023-11-24T00:57:12.177Z,1.50
2023-11-24T00:59:43.457Z,1.50
2023-11-24T01:02:14.584Z,1.80
2023-11-24T01:04:46.023Z,1.30
2023-11-24T01:07:17.421Z,1.40
2023-11-24T01:09:49.293Z,1.70
2023-11-24T01:12:20.513Z,1.30
2023-11-24T01:14:51.568Z,1.30
2023-11-24T01:17:23.032Z,1.80
2023-11-24T01:19:54.231Z,1.30
2023-11-24T01:22:26.067Z,1.20
2023-11-24T01:24:57.326Z,1.10
2023-11-24T01:27:31.366Z,1.10
2023-11-24T01:30:02.524Z,1.70
2023-11-24T01:32:34.077Z,1.60
2023-11-24T01:35:06.764Z,1.60
2023-11-24T01:37:37.661Z,1.60
2023-11-24T01:40:11.844Z,1.40
2023-11-24T01:42:43.620Z,1.30
2023-11-24T01:45:14.731Z,1.30
2023-11-24T01:47:48.255Z,1.10
2023-11-24T01:50:19.776Z,1.30
2023-11-24T01:52:51.430Z,1.40
2023-11-24T01:55:24.606Z,1.40
2023-11-24T01:57:57.748Z,1.40
2023-11-24T02:00:29.349Z,1.20
2023-11-24T02:03:01.839Z,1.40
2023-11-24T02:05:33.356Z,1.20
2023-11-24T02:08:05.251Z,1.20
2023-11-24T02:10:37.118Z,1.30
2023-11-24T02:13:09.481Z,1.20
2023-11-24T02:15:41.704Z,1.30
2023-11-24T02:18:13.696Z,1.30
2023-11-24T02:20:45.489Z,1.10
2023-11-24T02:23:17.573Z,1.30
2023-11-24T02:25:48.602Z,1.10
2023-11-24T02:28:19.560Z,1.30
2023-11-24T02:30:50.834Z,1.30
2023-11-24T02:33:24.107Z,1.30
2023-11-24T02:35:55.623Z,1.40
2023-11-24T02:38:26.597Z,1.30
2023-11-24T02:40:57.836Z,1.40
2023-11-24T02:43:29.754Z,1.40
2023-11-24T02:46:01.701Z,1.30
2023-11-24T02:48:33.356Z,1.30
2023-11-24T02:51:08.147Z,1.30
2023-11-24T02:53:40.969Z,1.40
2023-11-24T02:56:12.729Z,1.40
2023-11-24T02:58:44.227Z,1.40
2023-11-24T03:01:15.312Z,1.20
2023-11-24T03:03:46.913Z,1.10
2023-11-24T03:06:19.247Z,1.30
2023-11-24T03:08:50.190Z,1.10
2023-11-24T03:11:21.244Z,1.20
2023-11-24T03:13:52.194Z,1.30
2023-11-24T03:16:23.428Z,1.10
2023-11-24T03:18:55.662Z,1.20
2023-11-24T03:21:27.110Z,1.50
2023-11-24T03:23:58.328Z,1.80
2023-11-24T03:26:29.976Z,1.70
2023-11-24T03:29:01.442Z,1.80
2023-11-24T03:31:32.855Z,1.70
2023-11-24T03:34:05.113Z,1.90
2023-11-24T03:36:36.933Z,1.50
2023-11-24T03:39:08.685Z,1.70
2023-11-24T03:41:39.813Z,1.60
2023-11-24T03:44:11.150Z,1.60
2023-11-24T03:46:42.531Z,1.60
2023-11-24T03:49:13.739Z,1.60
2023-11-24T03:51:45.346Z,1.80
2023-11-24T03:54:17.194Z,1.60
2023-11-24T03:56:48.575Z,1.60
2023-11-24T03:59:19.687Z,1.50
2023-11-24T04:01:51.566Z,1.50
2023-11-24T04:04:23.168Z,1.70
2023-11-24T04:06:54.368Z,1.60
2023-11-24T04:09:26.440Z,2.20
2023-11-24T04:11:57.639Z,1.60
2023-11-24T04:14:28.985Z,1.50
2023-11-24T04:17:01.517Z,1.60
2023-11-24T04:19:32.792Z,1.60
2023-11-24T04:22:03.979Z,1.60
2023-11-24T04:24:35.052Z,1.50
2023-11-24T04:27:07.076Z,1.60
2023-11-24T04:29:38.721Z,1.70
2023-11-24T04:32:10.885Z,1.70
2023-11-24T04:34:42.444Z,1.60
2023-11-24T04:37:15.550Z,1.80
2023-11-24T04:39:47.893Z,2.20
2023-11-24T04:42:19.754Z,2.30
2023-11-24T04:44:53.175Z,1.90
2023-11-24T04:47:24.242Z,1.50
2023-11-24T04:49:55.566Z,1.50
2023-11-24T04:52:26.660Z,1.80
2023-11-24T04:54:58.061Z,1.70
2023-11-24T04:57:29.454Z,1.70
2023-11-24T05:00:00.780Z,1.80
2023-11-24T05:02:31.942Z,1.50
2023-11-24T05:05:03.533Z,1.40
2023-11-24T05:07:35.837Z,1.40
2023-11-24T05:10:10.865Z,2.00
2023-11-24T05:12:42.232Z,1.80
2023-11-24T05:15:14.497Z,1.60
2023-11-24T05:17:45.747Z,1.70
2023-11-24T05:20:19.374Z,1.90
2023-11-24T05:22:51.361Z,1.80
2023-11-24T05:25:22.344Z,1.70
2023-11-24T05:27:53.334Z,2.50
2023-11-24T05:30:24.992Z,2.60
2023-11-24T05:32:55.862Z,2.10
2023-11-24T05:35:27.114Z,1.70
2023-11-24T05:37:59.428Z,1.80
2023-11-24T05:40:30.713Z,1.60
2023-11-24T05:43:02.221Z,1.60
2023-11-24T05:45:35.887Z,1.60
2023-11-24T05:48:07.991Z,1.90
2023-11-24T05:50:40.072Z,1.90
2023-11-24T05:53:10.947Z,1.80
2023-11-24T05:55:42.259Z,2.20
2023-11-24T05:58:13.461Z,1.90
2023-11-24T06:00:45.527Z,2.00
2023-11-24T06:03:16.778Z,1.90
2023-11-24T06:05:48.065Z,2.10
2023-11-24T06:08:19.714Z,2.20
2023-11-24T06:10:51.587Z,1.80
2023-11-24T06:13:23.448Z,1.90
2023-11-24T06:15:56.072Z,2.00
2023-11-24T06:18:27.724Z,2.10
2023-11-24T06:20:59.117Z,2.30
2023-11-24T06:23:30.845Z,2.30
2023-11-24T06:26:01.718Z,2.10
2023-11-24T06:28:33.151Z,2.00
2023-11-24T06:31:04.672Z,1.90
2023-11-24T06:33:36.345Z,1.80
2023-11-24T06:36:08.602Z,1.90
2023-11-24T06:38:41.402Z,2.00
2023-11-24T06:41:13.424Z,2.30
2023-11-24T06:43:44.506Z,2.50
2023-11-24T06:46:15.576Z,3.30
2023-11-24T06:48:46.764Z,3.50
2023-11-24T06:51:19.232Z,3.50
2023-11-24T06:53:51.013Z,3.40
2023-11-24T06:56:22.664Z,2.90
2023-11-24T06:58:55.852Z,2.90
2023-11-24T07:01:34.188Z,2.80
2023-11-24T07:04:06.811Z,2.40
2023-11-24T07:06:37.958Z,2.60
2023-11-24T07:09:12.387Z,2.30
2023-11-24T07:11:44.799Z,2.30
2023-11-24T07:14:16.202Z,2.60
2023-11-24T07:16:47.909Z,2.50
2023-11-24T07:19:20.368Z,2.60
2023-11-24T07:21:51.477Z,2.50
2023-11-24T07:24:22.463Z,2.40
2023-11-24T07:26:55.136Z,2.50
2023-11-24T07:29:26.544Z,2.10
2023-11-24T07:31:57.645Z,2.10
2023-11-24T07:34:29.168Z,1.90
2023-11-24T07:37:02.182Z,2.70
2023-11-24T07:39:33.652Z,2.70
2023-11-24T07:42:05.727Z,2.60
2023-11-24T07:44:37.965Z,2.80
2023-11-24T07:47:10.035Z,3.00
2023-11-24T07:49:41.453Z,3.00
2023-11-24T07:52:13.216Z,3.50
2023-11-24T07:54:44.709Z,3.00
2023-11-24T07:57:15.832Z,3.30
2023-11-24T07:59:47.940Z,3.10
2023-11-24T08:02:19.137Z,2.70
2023-11-24T08:04:50.450Z,2.60
2023-11-24T08:07:22.959Z,2.80
2023-11-24T08:09:54.601Z,2.60
2023-11-24T08:12:25.898Z,2.60
2023-11-24T08:15:00.033Z,2.70
2023-11-24T08:17:31.468Z,2.60
2023-11-24T08:20:05.892Z,2.60
2023-11-24T08:22:37.248Z,2.90
2023-11-24T08:25:11.790Z,2.90
2023-11-24T08:27:45.839Z,3.10
2023-11-24T08:30:18.164Z,3.50
2023-11-24T08:32:50.536Z,3.20
2023-11-24T08:35:21.518Z,3.00
2023-11-24T08:37:52.955Z,3.00
2023-11-24T08:40:25.687Z,2.80
2023-11-24T08:42:59.164Z,2.90
2023-11-24T08:45:30.811Z,2.80
2023-11-24T08:48:01.910Z,2.90
2023-11-24T08:50:32.989Z,2.90
2023-11-24T08:53:06.828Z,3.10
2023-11-24T08:55:37.680Z,2.80
2023-11-24T08:58:08.642Z,2.90
2023-11-24T09:00:40.068Z,2.80
2023-11-24T09:03:11.824Z,2.90
2023-11-24T09:05:44.573Z,2.90
2023-11-24T09:08:18.403Z,3.00
2023-11-24T09:10:51.100Z,3.10
2023-11-24T09:13:23.336Z,4.70
2023-11-24T09:15:54.964Z,5.90
2023-11-24T09:18:26.917Z,5.50
2023-11-24T09:21:01.047Z,3.90
2023-11-24T09:23:32.713Z,2.90
2023-11-24T09:26:06.647Z,2.80
2023-11-24T09:28:38.836Z,3.30
2023-11-24T09:31:13.780Z,4.00
2023-11-24T09:33:45.118Z,4.10
2023-11-24T09:36:16.626Z,4.00
2023-11-24T09:38:49.499Z,3.50
2023-11-24T09:41:22.078Z,3.10
2023-11-24T09:43:53.839Z,2.70
2023-11-24T09:46:33.598Z,2.80
2023-11-24T09:49:12.281Z,2.80
2023-11-24T09:51:43.901Z,2.80
2023-11-24T09:54:19.190Z,2.90
2023-11-24T09:56:51.220Z,2.90
2023-11-24T09:59:23.650Z,2.80
2023-11-24T10:01:58.908Z,2.90
2023-11-24T10:04:30.288Z,2.70
2023-11-24T10:07:02.427Z,3.40
2023-11-24T10:09:36.575Z,2.90
2023-11-24T10:12:09.020Z,3.10
2023-11-24T10:14:44.937Z,2.80
2023-11-24T10:17:16.210Z,2.60
2023-11-24T10:19:47.181Z,2.70
2023-11-24T10:22:20.438Z,2.70
2023-11-24T10:24:51.565Z,2.50
2023-11-24T10:27:24.123Z,2.50
2023-11-24T10:29:55.309Z,2.60
2023-11-24T10:32:26.637Z,2.00
2023-11-24T10:34:59.149Z,2.20
2023-11-24T10:37:30.711Z,2.30
2023-11-24T10:40:03.723Z,2.10
2023-11-24T10:42:35.993Z,2.30
2023-11-24T10:45:11.159Z,2.80
2023-11-24T10:47:52.762Z,5.10
2023-11-24T10:50:29.294Z,11.30
2023-11-24T10:53:12.986Z,7.10
2023-11-24T10:55:45.541Z,5.00
2023-11-24T10:58:17.637Z,3.40
2023-11-24T11:00:49.612Z,2.70
2023-11-24T11:03:20.607Z,2.50
2023-11-24T11:06:05.315Z,2.10
2023-11-24T11:08:39.858Z,2.20
2023-11-24T11:11:28.780Z,2.60
2023-11-24T11:14:00.774Z,2.50
2023-11-24T11:16:32.635Z,2.30
2023-11-24T11:19:32.724Z,2.40
2023-11-24T11:22:08.398Z,2.50
2023-11-24T11:24:39.664Z,2.40
2023-11-24T11:27:27.987Z,2.50
2023-11-24T11:29:59.516Z,2.60
2023-11-24T11:32:34.070Z,2.50
2023-11-24T11:35:06.063Z,2.60
2023-11-24T11:37:37.328Z,2.50
2023-11-24T11:40:20.808Z,2.30
2023-11-24T11:43:00.317Z,2.60
2023-11-24T11:45:34.848Z,2.40
2023-11-24T11:48:10.430Z,2.70
2023-11-24T11:50:51.924Z,2.20
2023-11-24T11:53:26.721Z,2.30
2023-11-24T11:55:58.380Z,2.40
2023-11-24T11:58:30.560Z,2.00
2023-11-24T12:01:01.873Z,2.30
2023-11-24T12:03:33.505Z,2.40
2023-11-24T12:06:08.368Z,2.20
2023-11-24T12:08:40.293Z,3.00
2023-11-24T12:11:14.220Z,2.40
2023-11-24T12:13:45.550Z,2.20
2023-11-24T12:16:16.751Z,2.40
2023-11-24T12:18:54.212Z,2.30
2023-11-24T12:21:25.362Z,2.20
2023-11-24T12:24:08.323Z,2.20
2023-11-24T12:26:46.908Z,2.30
2023-11-24T12:29:18.240Z,2.30
2023-11-24T12:31:49.288Z,2.40
2023-11-24T12:34:21.969Z,2.70
2023-11-24T12:36:55.988Z,2.30
2023-11-24T12:39:31.924Z,2.40
2023-11-24T12:42:05.517Z,2.80
2023-11-24T12:44:37.994Z,2.50
2023-11-24T12:47:15.024Z,2.40
2023-11-24T12:50:02.093Z,2.70
2023-11-24T12:52:37.422Z,2.60
2023-11-24T12:55:11.847Z,2.60
2023-11-24T12:57:44.830Z,2.30
2023-11-24T13:00:18.434Z,2.00
2023-11-24T13:02:49.824Z,2.20
2023-11-24T13:05:21.407Z,2.10
2023-11-24T13:07:53.129Z,2.30
2023-11-24T13:10:24.187Z,2.60
2023-11-24T13:12:55.656Z,2.80
2023-11-24T13:15:26.853Z,2.60
2023-11-24T13:17:58.121Z,2.70
2023-11-24T13:20:33.800Z,2.50
2023-11-24T13:23:05.639Z,2.70
2023-11-24T13:25:38.040Z,2.60
2023-11-24T13:28:09.641Z,2.70
2023-11-24T13:30:41.098Z,2.80
2023-11-24T13:33:12.391Z,2.70
2023-11-24T13:35:43.787Z,2.60
2023-11-24T13:38:16.479Z,2.40
2023-11-24T13:40:48.841Z,2.70
2023-11-24T13:43:20.540Z,2.40
2023-11-24T13:45:52.806Z,2.40
2023-11-24T13:48:24.957Z,2.60
2023-11-24T13:50:58.405Z,2.70
2023-11-24T13:53:32.265Z,2.60
2023-11-24T13:56:03.328Z,2.70
2023-11-24T13:58:39.641Z,2.40
2023-11-24T14:01:11.062Z,2.50
2023-11-24T14:03:44.637Z,2.30
2023-11-24T14:06:16.766Z,2.70
2023-11-24T14:08:48.635Z,1.90
2023-11-24T14:11:20.170Z,2.10
2023-11-24T14:13:51.854Z,2.00
2023-11-24T14:16:25.007Z,2.50
2023-11-24T14:18:56.289Z,2.60
2023-11-24T14:21:27.594Z,2.30
2023-11-24T14:24:01.634Z,2.30
2023-11-24T14:26:34.564Z,2.30
2023-11-24T14:29:07.237Z,2.60
2023-11-24T14:31:38.396Z,2.70
2023-11-24T14:34:10.933Z,2.50
2023-11-24T14:36:43.650Z,2.30
2023-11-24T14:39:28.134Z,2.20
2023-11-24T14:41:59.811Z,2.10
2023-11-24T14:44:31.198Z,2.20
2023-11-24T14:47:02.882Z,2.40
2023-11-24T14:49:34.604Z,2.60
2023-11-24T14:52:09.009Z,2.20
2023-11-24T14:54:40.373Z,2.30
2023-11-24T14:57:14.145Z,2.20
2023-11-24T14:59:45.459Z,2.00
2023-11-24T15:02:18.227Z,2.00
2023-11-24T15:04:49.382Z,2.10
2023-11-24T15:07:21.118Z,2.30
2023-11-24T15:09:53.915Z,2.10
2023-11-24T15:12:28.355Z,2.40
2023-11-24T15:15:00.450Z,2.20
2023-11-24T15:17:32.199Z,2.20
2023-11-24T15:20:26.664Z,2.50
2023-11-24T15:22:59.651Z,2.60
2023-11-24T15:25:36.887Z,2.50
2023-11-24T15:28:14.039Z,2.70
2023-11-24T15:30:46.299Z,3.20
2023-11-24T15:33:19.638Z,3.30
2023-11-24T15:35:51.162Z,4.20
2023-11-24T15:38:24.293Z,6.90
2023-11-24T15:40:55.975Z,10.50
2023-11-24T15:43:27.229Z,11.70
2023-11-24T15:46:00.218Z,12.20
2023-11-24T15:48:34.220Z,11.50
2023-11-24T15:51:06.392Z,10.70
2023-11-24T15:53:37.200Z,10.80
2023-11-24T15:56:11.909Z,9.50
2023-11-24T15:58:44.715Z,8.90
2023-11-24T16:01:16.703Z,10.40
2023-11-24T16:03:47.794Z,9.80
2023-11-24T16:06:21.871Z,9.50
2023-11-24T16:08:56.510Z,10.40
2023-11-24T16:11:28.231Z,10.30
2023-11-24T16:13:59.882Z,9.60
2023-11-24T16:16:32.434Z,8.40
2023-11-24T16:19:03.445Z,7.30
2023-11-24T16:21:34.651Z,9.40
2023-11-24T16:24:06.366Z,9.60
2023-11-24T16:26:37.261Z,8.10
2023-11-24T16:29:08.695Z,7.10
2023-11-24T16:31:44.374Z,5.30
2023-11-24T16:34:16.448Z,4.70
2023-11-24T16:36:47.963Z,4.90
2023-11-24T16:39:23.930Z,4.40
2023-11-24T16:41:55.309Z,4.40
2023-11-24T16:44:26.152Z,4.50
2023-11-24T16:47:01.236Z,4.70
2023-11-24T16:49:32.456Z,4.50
2023-11-24T16:52:04.707Z,4.20
2023-11-24T16:54:36.390Z,4.10
2023-11-24T16:57:09.634Z,4.30
2023-11-24T16:59:40.636Z,3.60
2023-11-24T17:02:11.707Z,3.70
2023-11-24T17:04:43.242Z,3.60
2023-11-24T17:07:14.544Z,3.50
2023-11-24T17:09:47.372Z,3.70
2023-11-24T17:12:19.764Z,4.00
2023-11-24T17:14:51.268Z,4.90
2023-11-24T17:17:22.699Z,5.00
2023-11-24T17:19:54.197Z,5.00
2023-11-24T17:22:25.500Z,5.00
2023-11-24T17:24:57.151Z,5.10
2023-11-24T17:27:30.206Z,4.60
2023-11-24T17:30:01.945Z,4.70
2023-11-24T17:32:33.040Z,4.40
2023-11-24T17:35:07.235Z,4.30
2023-11-24T17:37:39.152Z,3.90
2023-11-24T17:40:15.852Z,3.50
2023-11-24T17:42:47.692Z,4.00
2023-11-24T17:45:19.628Z,3.90
2023-11-24T17:47:52.991Z,3.60
2023-11-24T17:50:24.806Z,3.60
2023-11-24T17:52:55.861Z,3.30
2023-11-24T17:55:27.569Z,3.80
2023-11-24T17:57:58.712Z,3.20
2023-11-24T18:00:33.371Z,3.30
2023-11-24T18:03:06.921Z,3.50
2023-11-24T18:05:38.625Z,3.70
2023-11-24T18:08:09.960Z,3.90
2023-11-24T18:10:41.273Z,4.70
2023-11-24T18:13:12.374Z,5.30
2023-11-24T18:15:43.791Z,5.40
2023-11-24T18:18:14.996Z,5.70
2023-11-24T18:20:46.924Z,6.00
2023-11-24T18:23:17.993Z,6.00
2023-11-24T18:25:51.402Z,5.90
2023-11-24T18:28:22.294Z,5.20
2023-11-24T18:30:54.471Z,5.20
2023-11-24T18:33:26.821Z,5.20
2023-11-24T18:35:58.091Z,5.20
2023-11-24T18:38:29.978Z,5.00
2023-11-24T18:41:01.208Z,4.90
2023-11-24T18:43:39.499Z,4.30
2023-11-24T18:46:12.081Z,4.90
2023-11-24T18:48:43.389Z,4.50
2023-11-24T18:51:15.717Z,4.40
2023-11-24T18:53:47.125Z,4.50
2023-11-24T18:56:22.980Z,4.70
2023-11-24T18:58:54.189Z,4.90
2023-11-24T19:01:25.316Z,4.40
2023-11-24T19:03:56.548Z,4.90
2023-11-24T19:06:28.950Z,5.00
2023-11-24T19:08:59.776Z,5.50
2023-11-24T19:11:31.171Z,5.60
2023-11-24T19:14:02.933Z,5.50
2023-11-24T19:16:34.343Z,5.30
2023-11-24T19:19:05.794Z,5.00
2023-11-24T19:21:36.900Z,4.90
2023-11-24T19:24:09.842Z,4.50
2023-11-24T19:26:40.913Z,4.70
2023-11-24T19:29:12.669Z,5.20
2023-11-24T19:31:44.042Z,5.30
2023-11-24T19:34:15.382Z,4.40
2023-11-24T19:36:46.393Z,4.80
2023-11-24T19:39:18.085Z,5.00
2023-11-24T19:41:48.952Z,5.30
2023-11-24T19:44:21.248Z,5.20
2023-11-24T19:46:52.344Z,5.50
2023-11-24T19:49:23.632Z,5.50
2023-11-24T19:51:54.713Z,5.60
2023-11-24T19:54:25.639Z,4.60
2023-11-24T19:56:56.856Z,5.20
2023-11-24T19:59:28.161Z,5.40
2023-11-24T20:01:59.974Z,5.70
2023-11-24T20:04:31.685Z,5.20
2023-11-24T20:07:03.022Z,5.10
2023-11-24T20:09:34.180Z,5.00
2023-11-24T20:12:05.455Z,4.70
2023-11-24T20:14:36.847Z,5.20
2023-11-24T20:17:09.812Z,5.60
2023-11-24T20:19:40.889Z,5.90
2023-11-24T20:22:11.815Z,5.90
2023-11-24T20:24:43.952Z,5.70
2023-11-24T20:27:15.088Z,5.10
2023-11-24T20:29:46.355Z,4.90
2023-11-24T20:32:17.916Z,4.70
2023-11-24T20:34:50.502Z,3.90
2023-11-24T20:37:21.577Z,4.30
2023-11-24T20:39:57.245Z,3.60
2023-11-24T20:42:28.427Z,4.00
2023-11-24T20:44:59.462Z,3.70
2023-11-24T20:47:31.049Z,4.00
2023-11-24T20:50:02.112Z,4.00
2023-11-24T20:52:33.225Z,3.80
2023-11-24T20:55:04.555Z,4.20
2023-11-24T20:57:35.973Z,4.30
2023-11-24T21:00:11.733Z,4.30
2023-11-24T21:02:43.463Z,4.00
2023-11-24T21:05:14.829Z,4.10
2023-11-24T21:07:46.111Z,4.00
2023-11-24T21:10:17.786Z,4.10
2023-11-24T21:12:49.387Z,4.20
2023-11-24T21:15:20.574Z,4.10
2023-11-24T21:17:51.857Z,4.20
2023-11-24T21:20:24.778Z,3.90
2023-11-24T21:22:55.784Z,4.00
2023-11-24T21:25:29.318Z,3.70
2023-11-24T21:28:01.330Z,3.50
2023-11-24T21:30:32.326Z,3.40
2023-11-24T21:33:03.505Z,3.70
2023-11-24T21:35:35.035Z,3.60
2023-11-24T21:38:06.151Z,3.80
2023-11-24T21:40:37.097Z,3.80
2023-11-24T21:43:08.147Z,3.70
2023-11-24T21:45:39.443Z,3.50
2023-11-24T21:48:11.126Z,3.30
2023-11-24T21:50:42.586Z,3.50
2023-11-24T21:53:15.025Z,3.20
2023-11-24T21:55:46.604Z,3.30
2023-11-24T21:58:19.054Z,3.20
2023-11-24T22:00:50.522Z,3.50
2023-11-24T22:03:22.312Z,3.50
2023-11-24T22:05:54.228Z,3.60
2023-11-24T22:08:25.347Z,3.70
2023-11-24T22:10:56.794Z,3.30
2023-11-24T22:13:27.981Z,3.20
2023-11-24T22:15:59.410Z,3.10
2023-11-24T22:18:32.016Z,3.30
2023-11-24T22:21:03.326Z,3.40
2023-11-24T22:23:34.408Z,3.00
2023-11-24T22:26:06.084Z,2.70
2023-11-24T22:28:37.056Z,2.90
2023-11-24T22:31:08.829Z,2.80
2023-11-24T22:33:41.033Z,2.60
2023-11-24T22:36:19.403Z,3.00
2023-11-24T22:38:51.597Z,3.10
2023-11-24T22:41:24.000Z,3.00
2023-11-24T22:43:56.787Z,2.90
2023-11-24T22:46:28.967Z,3.00
2023-11-24T22:49:00.267Z,2.30
2023-11-24T22:51:31.365Z,2.50
2023-11-24T22:54:02.356Z,2.00
2023-11-24T22:56:34.049Z,2.40
2023-11-24T22:59:05.643Z,2.40
2023-11-24T23:01:36.982Z,2.30
2023-11-24T23:04:09.018Z,2.30
2023-11-24T23:06:40.360Z,2.60
2023-11-24T23:09:11.508Z,2.30
2023-11-24T23:11:42.561Z,2.40
2023-11-24T23:14:14.389Z,2.20
2023-11-24T23:16:46.081Z,2.20
2023-11-24T23:19:17.090Z,2.50
2023-11-24T23:21:50.156Z,2.40
2023-11-24T23:24:21.056Z,2.20
2023-11-24T23:26:52.173Z,2.60
2023-11-24T23:29:23.283Z,2.20
2023-11-24T23:31:54.723Z,2.40
2023-11-24T23:34:26.696Z,2.00
2023-11-24T23:36:58.220Z,2.40
2023-11-24T23:39:29.773Z,2.10
2023-11-24T23:42:03.734Z,2.10
2023-11-24T23:44:36.968Z,1.80
2023-11-24T23:47:08.458Z,1.60
2023-11-24T23:49:40.448Z,1.40
2023-11-24T23:52:12.300Z,1.50
2023-11-24T23:54:43.832Z,1.60
2023-11-24T23:57:15.606Z,1.30
2023-11-24T23:59:47.070Z,1.50
